KCCY/CCY METAR and TAF weather

Enter ICAO airport designator
Station Type Date Time Source
KCCY METAR 2021/01/17 19:55 UTC NOAA

KCCY 171955Z AUTO 34007KT 10SM SCT013 M05/M06 A2975 RMK AO2


Station Type Date Time Source
KCCY Decoded METAR 2021/01/17 19:55 UTC NOAA

Charles City, IA, United States (KCCY) 43-04N 092-37W
Jan 17, 2021 - 02:55 PM EST / 2021.01.17 1955 UTC
Wind: from the NNW (340 degrees) at 8 MPH (7 KT):0
Visibility: 10 mile(s):0
Sky conditions: partly cloudy
Temperature: 23 F (-5 C)
Windchill: 14 F (-10 C):1
Dew Point: 21 F (-6 C)
Relative Humidity: 92%
Pressure (altimeter): 29.75 in. Hg (1007 hPa)
ob: KCCY 171955Z AUTO 34007KT 10SM SCT013 M05/M06 A2975 RMK AO2
cycle: 20

Station Type Date Time Source
KCCY TAF UTC NOAA

Error!

Example: see airport list